sensor_id;sensor_type;location;lat;lon;timestamp;pressure;altitude;pressure_sealevel;temperature
15575;BMP180;7888;46.748;8.102;2024-02-28T00:01:50;93685.00;;;12.50
15575;BMP180;7888;46.748;8.102;2024-02-28T00:04:16;93711.00;;;12.50
15575;BMP180;7888;46.748;8.102;2024-02-28T00:06:42;93753.00;;;12.60
15575;BMP180;7888;46.748;8.102;2024-02-28T00:09:09;93752.00;;;12.50
15575;BMP180;7888;46.748;8.102;2024-02-28T00:11:35;93755.00;;;12.40
15575;BMP180;7888;46.748;8.102;2024-02-28T00:14:01;93770.00;;;12.50
15575;BMP180;7888;46.748;8.102;2024-02-28T00:16:28;93727.00;;;12.40
15575;BMP180;7888;46.748;8.102;2024-02-28T00:18:53;93729.00;;;12.50
15575;BMP180;7888;46.748;8.102;2024-02-28T00:21:19;93719.00;;;12.50
15575;BMP180;7888;46.748;8.102;2024-02-28T00:23:45;93729.00;;;12.50
15575;BMP180;7888;46.748;8.102;2024-02-28T00:26:12;93770.00;;;12.40
15575;BMP180;7888;46.748;8.102;2024-02-28T00:28:38;93756.00;;;12.50
15575;BMP180;7888;46.748;8.102;2024-02-28T00:31:03;93775.00;;;12.50
15575;BMP180;7888;46.748;8.102;2024-02-28T00:33:29;93744.00;;;12.50
15575;BMP180;7888;46.748;8.102;2024-02-28T00:35:55;93780.00;;;12.50
15575;BMP180;7888;46.748;8.102;2024-02-28T00:38:21;93735.00;;;12.50
15575;BMP180;7888;46.748;8.102;2024-02-28T00:40:47;93770.00;;;12.50
15575;BMP180;7888;46.748;8.102;2024-02-28T00:43:13;93767.00;;;12.50
15575;BMP180;7888;46.748;8.102;2024-02-28T00:45:39;93770.00;;;12.50
15575;BMP180;7888;46.748;8.102;2024-02-28T00:48:05;93731.00;;;12.50
15575;BMP180;7888;46.748;8.102;2024-02-28T00:50:31;93782.00;;;12.50
15575;BMP180;7888;46.748;8.102;2024-02-28T00:52:57;93734.00;;;12.50
15575;BMP180;7888;46.748;8.102;2024-02-28T00:55:22;93769.00;;;12.50
15575;BMP180;7888;46.748;8.102;2024-02-28T00:57:48;93783.00;;;12.50
15575;BMP180;7888;46.748;8.102;2024-02-28T01:00:14;93729.00;;;12.50
15575;BMP180;7888;46.748;8.102;2024-02-28T01:02:40;93767.00;;;12.50
15575;BMP180;7888;46.748;8.102;2024-02-28T01:05:09;93733.00;;;12.50
15575;BMP180;7888;46.748;8.102;2024-02-28T01:07:35;93775.00;;;12.50
15575;BMP180;7888;46.748;8.102;2024-02-28T01:10:00;93698.00;;;12.50
15575;BMP180;7888;46.748;8.102;2024-02-28T01:12:26;93772.00;;;12.50
15575;BMP180;7888;46.748;8.102;2024-02-28T01:14:52;93761.00;;;12.50
15575;BMP180;7888;46.748;8.102;2024-02-28T01:17:17;93712.00;;;12.40
15575;BMP180;7888;46.748;8.102;2024-02-28T01:19:43;93772.00;;;12.50
15575;BMP180;7888;46.748;8.102;2024-02-28T01:22:09;93693.00;;;12.50
15575;BMP180;7888;46.748;8.102;2024-02-28T01:24:35;93770.00;;;12.40
15575;BMP180;7888;46.748;8.102;2024-02-28T01:27:01;93750.00;;;12.40
15575;BMP180;7888;46.748;8.102;2024-02-28T01:29:26;93727.00;;;12.40
15575;BMP180;7888;46.748;8.102;2024-02-28T01:31:52;93767.00;;;12.30
15575;BMP180;7888;46.748;8.102;2024-02-28T01:34:18;93712.00;;;12.30
15575;BMP180;7888;46.748;8.102;2024-02-28T01:36:44;93747.00;;;12.30
15575;BMP180;7888;46.748;8.102;2024-02-28T01:39:10;93732.00;;;12.30
15575;BMP180;7888;46.748;8.102;2024-02-28T01:41:35;93687.00;;;12.30
15575;BMP180;7888;46.748;8.102;2024-02-28T01:44:01;93720.00;;;12.30
15575;BMP180;7888;46.748;8.102;2024-02-28T01:46:29;93760.00;;;12.30
15575;BMP180;7888;46.748;8.102;2024-02-28T01:48:56;93769.00;;;12.30
15575;BMP180;7888;46.748;8.102;2024-02-28T01:51:25;93724.00;;;12.30
15575;BMP180;7888;46.748;8.102;2024-02-28T01:53:53;93721.00;;;12.30
15575;BMP180;7888;46.748;8.102;2024-02-28T01:56:20;93755.00;;;12.30
15575;BMP180;7888;46.748;8.102;2024-02-28T01:58:49;93713.00;;;12.30
15575;BMP180;7888;46.748;8.102;2024-02-28T02:01:16;93750.00;;;12.30
15575;BMP180;7888;46.748;8.102;2024-02-28T02:03:46;93751.00;;;12.30
15575;BMP180;7888;46.748;8.102;2024-02-28T02:06:12;93742.00;;;12.30
15575;BMP180;7888;46.748;8.102;2024-02-28T02:08:39;93712.00;;;12.40
15575;BMP180;7888;46.748;8.102;2024-02-28T02:11:05;93745.00;;;12.30
15575;BMP180;7888;46.748;8.102;2024-02-28T02:13:32;93704.00;;;12.30
15575;BMP180;7888;46.748;8.102;2024-02-28T02:15:58;93740.00;;;12.20
15575;BMP180;7888;46.748;8.102;2024-02-28T02:18:24;93693.00;;;12.10
15575;BMP180;7888;46.748;8.102;2024-02-28T02:21:04;93746.00;;;12.10
15575;BMP180;7888;46.748;8.102;2024-02-28T02:23:32;93719.00;;;12.20
15575;BMP180;7888;46.748;8.102;2024-02-28T02:25:58;93761.00;;;12.20
15575;BMP180;7888;46.748;8.102;2024-02-28T02:28:23;93770.00;;;12.20
15575;BMP180;7888;46.748;8.102;2024-02-28T02:30:49;93773.00;;;12.20
15575;BMP180;7888;46.748;8.102;2024-02-28T02:33:15;93765.00;;;12.20
15575;BMP180;7888;46.748;8.102;2024-02-28T02:35:41;93764.00;;;12.20
15575;BMP180;7888;46.748;8.102;2024-02-28T02:38:06;93778.00;;;12.20
15575;BMP180;7888;46.748;8.102;2024-02-28T02:40:32;93780.00;;;12.20
15575;BMP180;7888;46.748;8.102;2024-02-28T02:42:58;93783.00;;;12.30
15575;BMP180;7888;46.748;8.102;2024-02-28T02:45:23;93779.00;;;12.20
15575;BMP180;7888;46.748;8.102;2024-02-28T02:47:49;93696.00;;;12.20
15575;BMP180;7888;46.748;8.102;2024-02-28T02:50:15;93765.00;;;12.20
15575;BMP180;7888;46.748;8.102;2024-02-28T02:52:41;93735.00;;;12.20
15575;BMP180;7888;46.748;8.102;2024-02-28T02:55:07;93775.00;;;12.20
15575;BMP180;7888;46.748;8.102;2024-02-28T02:57:33;93775.00;;;12.20
15575;BMP180;7888;46.748;8.102;2024-02-28T02:59:59;93767.00;;;12.20
15575;BMP180;7888;46.748;8.102;2024-02-28T03:02:24;93761.00;;;12.20
15575;BMP180;7888;46.748;8.102;2024-02-28T03:04:50;93715.00;;;12.20
15575;BMP180;7888;46.748;8.102;2024-02-28T03:07:16;93726.00;;;12.10
15575;BMP180;7888;46.748;8.102;2024-02-28T03:09:41;93762.00;;;12.10
15575;BMP180;7888;46.748;8.102;2024-02-28T03:12:08;93766.00;;;12.00
15575;BMP180;7888;46.748;8.102;2024-02-28T03:14:35;93765.00;;;12.00
15575;BMP180;7888;46.748;8.102;2024-02-28T03:17:01;93773.00;;;12.00
15575;BMP180;7888;46.748;8.102;2024-02-28T03:19:27;93770.00;;;12.00
15575;BMP180;7888;46.748;8.102;2024-02-28T03:21:53;93777.00;;;12.10
15575;BMP180;7888;46.748;8.102;2024-02-28T03:24:19;93706.00;;;12.10
15575;BMP180;7888;46.748;8.102;2024-02-28T03:26:45;93739.00;;;12.20
15575;BMP180;7888;46.748;8.102;2024-02-28T03:29:10;93783.00;;;12.10
15575;BMP180;7888;46.748;8.102;2024-02-28T03:31:36;93791.00;;;12.20
15575;BMP180;7888;46.748;8.102;2024-02-28T03:34:02;93762.00;;;12.20
15575;BMP180;7888;46.748;8.102;2024-02-28T03:36:29;93748.00;;;12.30
15575;BMP180;7888;46.748;8.102;2024-02-28T03:38:54;93775.00;;;12.30
15575;BMP180;7888;46.748;8.102;2024-02-28T03:41:21;93758.00;;;12.30
15575;BMP180;7888;46.748;8.102;2024-02-28T03:43:47;93767.00;;;12.30
15575;BMP180;7888;46.748;8.102;2024-02-28T03:46:13;93772.00;;;12.40
15575;BMP180;7888;46.748;8.102;2024-02-28T03:48:38;93791.00;;;12.40
15575;BMP180;7888;46.748;8.102;2024-02-28T03:51:04;93802.00;;;12.40
15575;BMP180;7888;46.748;8.102;2024-02-28T03:53:30;93715.00;;;12.40
15575;BMP180;7888;46.748;8.102;2024-02-28T03:55:56;93781.00;;;12.40
15575;BMP180;7888;46.748;8.102;2024-02-28T03:58:22;93776.00;;;12.40
15575;BMP180;7888;46.748;8.102;2024-02-28T04:00:48;93828.00;;;12.50
15575;BMP180;7888;46.748;8.102;2024-02-28T04:03:14;93773.00;;;12.50
15575;BMP180;7888;46.748;8.102;2024-02-28T04:05:41;93828.00;;;12.50
15575;BMP180;7888;46.748;8.102;2024-02-28T04:08:07;93819.00;;;12.50
15575;BMP180;7888;46.748;8.102;2024-02-28T04:10:33;93815.00;;;12.50
15575;BMP180;7888;46.748;8.102;2024-02-28T04:12:59;93792.00;;;12.50
15575;BMP180;7888;46.748;8.102;2024-02-28T04:15:24;93795.00;;;12.50
15575;BMP180;7888;46.748;8.102;2024-02-28T04:17:52;93838.00;;;12.50
15575;BMP180;7888;46.748;8.102;2024-02-28T04:20:17;93825.00;;;12.50
15575;BMP180;7888;46.748;8.102;2024-02-28T04:22:43;93843.00;;;12.50
15575;BMP180;7888;46.748;8.102;2024-02-28T04:25:10;93855.00;;;12.50
15575;BMP180;7888;46.748;8.102;2024-02-28T04:27:36;93807.00;;;12.50
15575;BMP180;7888;46.748;8.102;2024-02-28T04:30:03;93807.00;;;12.50
15575;BMP180;7888;46.748;8.102;2024-02-28T04:32:29;93813.00;;;12.50
15575;BMP180;7888;46.748;8.102;2024-02-28T04:34:55;93852.00;;;12.50
15575;BMP180;7888;46.748;8.102;2024-02-28T04:37:21;93856.00;;;12.50
15575;BMP180;7888;46.748;8.102;2024-02-28T04:39:47;93793.00;;;12.50
15575;BMP180;7888;46.748;8.102;2024-02-28T04:42:14;93858.00;;;12.50
15575;BMP180;7888;46.748;8.102;2024-02-28T04:44:40;93823.00;;;12.50
15575;BMP180;7888;46.748;8.102;2024-02-28T04:47:05;93829.00;;;12.40
15575;BMP180;7888;46.748;8.102;2024-02-28T04:49:31;93825.00;;;12.50
15575;BMP180;7888;46.748;8.102;2024-02-28T04:51:57;93877.00;;;12.40
15575;BMP180;7888;46.748;8.102;2024-02-28T04:54:24;93873.00;;;12.20
15575;BMP180;7888;46.748;8.102;2024-02-28T04:56:50;93875.00;;;12.50
15575;BMP180;7888;46.748;8.102;2024-02-28T04:59:16;93876.00;;;12.40
15575;BMP180;7888;46.748;8.102;2024-02-28T05:01:42;93870.00;;;12.40
15575;BMP180;7888;46.748;8.102;2024-02-28T05:04:09;93884.00;;;12.40
15575;BMP180;7888;46.748;8.102;2024-02-28T05:06:35;93874.00;;;12.40
15575;BMP180;7888;46.748;8.102;2024-02-28T05:09:02;93874.00;;;12.40
15575;BMP180;7888;46.748;8.102;2024-02-28T05:11:28;93833.00;;;12.40
15575;BMP180;7888;46.748;8.102;2024-02-28T05:13:53;93836.00;;;12.40
15575;BMP180;7888;46.748;8.102;2024-02-28T05:16:20;93850.00;;;12.40
15575;BMP180;7888;46.748;8.102;2024-02-28T05:18:46;93843.00;;;12.40
15575;BMP180;7888;46.748;8.102;2024-02-28T05:21:13;93888.00;;;12.40
15575;BMP180;7888;46.748;8.102;2024-02-28T05:23:40;93884.00;;;12.40
15575;BMP180;7888;46.748;8.102;2024-02-28T05:26:06;93887.00;;;12.40
15575;BMP180;7888;46.748;8.102;2024-02-28T05:28:36;93869.00;;;12.40
15575;BMP180;7888;46.748;8.102;2024-02-28T05:31:23;93898.00;;;12.40
15575;BMP180;7888;46.748;8.102;2024-02-28T05:33:57;93890.00;;;12.40
15575;BMP180;7888;46.748;8.102;2024-02-28T05:36:28;93884.00;;;12.40
15575;BMP180;7888;46.748;8.102;2024-02-28T05:38:56;93900.00;;;12.40
15575;BMP180;7888;46.748;8.102;2024-02-28T05:41:22;93905.00;;;12.40
15575;BMP180;7888;46.748;8.102;2024-02-28T05:43:49;93881.00;;;12.40
15575;BMP180;7888;46.748;8.102;2024-02-28T05:46:16;93907.00;;;12.40
15575;BMP180;7888;46.748;8.102;2024-02-28T05:48:43;93891.00;;;12.40
15575;BMP180;7888;46.748;8.102;2024-02-28T05:51:11;93914.00;;;12.40
15575;BMP180;7888;46.748;8.102;2024-02-28T05:53:37;93895.00;;;12.40
15575;BMP180;7888;46.748;8.102;2024-02-28T05:56:05;93901.00;;;12.40
15575;BMP180;7888;46.748;8.102;2024-02-28T05:58:39;93903.00;;;12.30
15575;BMP180;7888;46.748;8.102;2024-02-28T06:01:05;93894.00;;;12.30
15575;BMP180;7888;46.748;8.102;2024-02-28T06:03:33;93897.00;;;12.20
15575;BMP180;7888;46.748;8.102;2024-02-28T06:05:59;93898.00;;;12.20
15575;BMP180;7888;46.748;8.102;2024-02-28T06:08:24;93885.00;;;12.20
15575;BMP180;7888;46.748;8.102;2024-02-28T06:10:50;93951.00;;;12.20
15575;BMP180;7888;46.748;8.102;2024-02-28T06:13:18;93913.00;;;12.20
15575;BMP180;7888;46.748;8.102;2024-02-28T06:15:44;93923.00;;;12.20
15575;BMP180;7888;46.748;8.102;2024-02-28T06:18:09;93968.00;;;12.20
15575;BMP180;7888;46.748;8.102;2024-02-28T06:20:35;93870.00;;;12.20
15575;BMP180;7888;46.748;8.102;2024-02-28T06:23:03;93980.00;;;12.20
15575;BMP180;7888;46.748;8.102;2024-02-28T06:25:28;93931.00;;;12.20
15575;BMP180;7888;46.748;8.102;2024-02-28T06:27:54;93906.00;;;12.20
15575;BMP180;7888;46.748;8.102;2024-02-28T06:30:20;93957.00;;;12.20
15575;BMP180;7888;46.748;8.102;2024-02-28T06:32:46;93965.00;;;12.20
15575;BMP180;7888;46.748;8.102;2024-02-28T06:35:11;93949.00;;;12.20
15575;BMP180;7888;46.748;8.102;2024-02-28T06:37:37;93973.00;;;12.20
15575;BMP180;7888;46.748;8.102;2024-02-28T06:40:03;94003.00;;;12.20
15575;BMP180;7888;46.748;8.102;2024-02-28T06:42:30;93999.00;;;12.20
15575;BMP180;7888;46.748;8.102;2024-02-28T06:44:55;93967.00;;;12.20
15575;BMP180;7888;46.748;8.102;2024-02-28T06:47:21;94016.00;;;12.10
15575;BMP180;7888;46.748;8.102;2024-02-28T06:49:47;94017.00;;;12.10
15575;BMP180;7888;46.748;8.102;2024-02-28T06:52:13;93966.00;;;12.10
15575;BMP180;7888;46.748;8.102;2024-02-28T06:54:39;94011.00;;;12.20
15575;BMP180;7888;46.748;8.102;2024-02-28T06:57:05;94020.00;;;12.20
15575;BMP180;7888;46.748;8.102;2024-02-28T06:59:30;94008.00;;;12.20
15575;BMP180;7888;46.748;8.102;2024-02-28T07:01:57;93995.00;;;12.10
15575;BMP180;7888;46.748;8.102;2024-02-28T07:04:22;94017.00;;;12.20
15575;BMP180;7888;46.748;8.102;2024-02-28T07:06:48;94006.00;;;12.20
15575;BMP180;7888;46.748;8.102;2024-02-28T07:09:14;94002.00;;;12.20
15575;BMP180;7888;46.748;8.102;2024-02-28T07:11:41;94053.00;;;12.20
15575;BMP180;7888;46.748;8.102;2024-02-28T07:14:07;94040.00;;;12.10
15575;BMP180;7888;46.748;8.102;2024-02-28T07:16:33;94058.00;;;12.10
15575;BMP180;7888;46.748;8.102;2024-02-28T07:19:03;94057.00;;;12.20
15575;BMP180;7888;46.748;8.102;2024-02-28T07:21:29;94053.00;;;12.20
15575;BMP180;7888;46.748;8.102;2024-02-28T07:23:56;94008.00;;;12.20
15575;BMP180;7888;46.748;8.102;2024-02-28T07:26:21;94018.00;;;12.20
15575;BMP180;7888;46.748;8.102;2024-02-28T07:28:47;94043.00;;;12.20
15575;BMP180;7888;46.748;8.102;2024-02-28T07:31:19;94053.00;;;12.20
15575;BMP180;7888;46.748;8.102;2024-02-28T07:33:45;94049.00;;;12.30
15575;BMP180;7888;46.748;8.102;2024-02-28T07:36:11;94060.00;;;12.30
15575;BMP180;7888;46.748;8.102;2024-02-28T07:38:37;94061.00;;;12.30
15575;BMP180;7888;46.748;8.102;2024-02-28T07:41:04;94029.00;;;12.20
15575;BMP180;7888;46.748;8.102;2024-02-28T07:43:30;94059.00;;;12.30
15575;BMP180;7888;46.748;8.102;2024-02-28T07:46:02;94071.00;;;12.30
15575;BMP180;7888;46.748;8.102;2024-02-28T07:48:28;94068.00;;;12.40
15575;BMP180;7888;46.748;8.102;2024-02-28T07:50:54;94064.00;;;12.30
15575;BMP180;7888;46.748;8.102;2024-02-28T07:53:19;94028.00;;;12.40
15575;BMP180;7888;46.748;8.102;2024-02-28T07:55:45;94038.00;;;12.40
15575;BMP180;7888;46.748;8.102;2024-02-28T07:58:11;94044.00;;;12.40
15575;BMP180;7888;46.748;8.102;2024-02-28T08:00:37;94083.00;;;12.40
15575;BMP180;7888;46.748;8.102;2024-02-28T08:03:03;93989.00;;;12.40
15575;BMP180;7888;46.748;8.102;2024-02-28T08:05:29;94049.00;;;12.50
15575;BMP180;7888;46.748;8.102;2024-02-28T08:07:55;94096.00;;;12.50
15575;BMP180;7888;46.748;8.102;2024-02-28T08:10:20;94020.00;;;12.50
15575;BMP180;7888;46.748;8.102;2024-02-28T08:12:46;94043.00;;;12.30
15575;BMP180;7888;46.748;8.102;2024-02-28T08:15:12;94015.00;;;12.50
15575;BMP180;7888;46.748;8.102;2024-02-28T08:17:37;94086.00;;;12.50
15575;BMP180;7888;46.748;8.102;2024-02-28T08:20:05;94073.00;;;12.50
15575;BMP180;7888;46.748;8.102;2024-02-28T08:22:31;94101.00;;;12.50
15575;BMP180;7888;46.748;8.102;2024-02-28T08:24:57;94081.00;;;12.50
15575;BMP180;7888;46.748;8.102;2024-02-28T08:27:23;94036.00;;;12.50
15575;BMP180;7888;46.748;8.102;2024-02-28T08:29:50;94048.00;;;12.60
15575;BMP180;7888;46.748;8.102;2024-02-28T08:32:17;94101.00;;;12.60
15575;BMP180;7888;46.748;8.102;2024-02-28T08:34:44;94067.00;;;12.60
15575;BMP180;7888;46.748;8.102;2024-02-28T08:37:13;94106.00;;;12.60
15575;BMP180;7888;46.748;8.102;2024-02-28T08:39:39;94102.00;;;12.60
15575;BMP180;7888;46.748;8.102;2024-02-28T08:42:06;94091.00;;;12.60
15575;BMP180;7888;46.748;8.102;2024-02-28T08:44:31;94097.00;;;12.60
15575;BMP180;7888;46.748;8.102;2024-02-28T08:46:57;94032.00;;;12.60
15575;BMP180;7888;46.748;8.102;2024-02-28T08:49:23;94077.00;;;12.50
15575;BMP180;7888;46.748;8.102;2024-02-28T08:51:48;94086.00;;;12.50
15575;BMP180;7888;46.748;8.102;2024-02-28T08:54:14;94097.00;;;12.60
15575;BMP180;7888;46.748;8.102;2024-02-28T08:56:40;94094.00;;;12.60
15575;BMP180;7888;46.748;8.102;2024-02-28T08:59:06;94089.00;;;12.60
15575;BMP180;7888;46.748;8.102;2024-02-28T09:01:31;94127.00;;;12.60
15575;BMP180;7888;46.748;8.102;2024-02-28T09:04:00;94141.00;;;12.60
15575;BMP180;7888;46.748;8.102;2024-02-28T09:06:25;94133.00;;;12.70
15575;BMP180;7888;46.748;8.102;2024-02-28T09:08:52;94139.00;;;12.70
15575;BMP180;7888;46.748;8.102;2024-02-28T09:11:18;94097.00;;;12.70
15575;BMP180;7888;46.748;8.102;2024-02-28T09:13:44;94129.00;;;12.70
15575;BMP180;7888;46.748;8.102;2024-02-28T09:16:09;94099.00;;;12.70
15575;BMP180;7888;46.748;8.102;2024-02-28T09:18:35;94086.00;;;12.80
15575;BMP180;7888;46.748;8.102;2024-02-28T09:21:01;94069.00;;;12.80
15575;BMP180;7888;46.748;8.102;2024-02-28T09:23:26;94102.00;;;12.80
15575;BMP180;7888;46.748;8.102;2024-02-28T09:25:52;94145.00;;;12.80
15575;BMP180;7888;46.748;8.102;2024-02-28T09:28:18;94074.00;;;12.80
15575;BMP180;7888;46.748;8.102;2024-02-28T09:30:44;94151.00;;;12.80
15575;BMP180;7888;46.748;8.102;2024-02-28T09:33:12;94153.00;;;12.80
15575;BMP180;7888;46.748;8.102;2024-02-28T09:35:38;94159.00;;;12.80
15575;BMP180;7888;46.748;8.102;2024-02-28T09:38:04;94088.00;;;12.80
15575;BMP180;7888;46.748;8.102;2024-02-28T09:40:30;94120.00;;;12.80
15575;BMP180;7888;46.748;8.102;2024-02-28T09:43:03;94144.00;;;12.70
15575;BMP180;7888;46.748;8.102;2024-02-28T09:45:33;94154.00;;;12.70
15575;BMP180;7888;46.748;8.102;2024-02-28T09:48:00;94092.00;;;12.60
15575;BMP180;7888;46.748;8.102;2024-02-28T09:50:27;94156.00;;;12.80
15575;BMP180;7888;46.748;8.102;2024-02-28T09:52:53;94158.00;;;12.80
15575;BMP180;7888;46.748;8.102;2024-02-28T09:55:20;94093.00;;;12.80
15575;BMP180;7888;46.748;8.102;2024-02-28T09:57:51;94103.00;;;12.80
15575;BMP180;7888;46.748;8.102;2024-02-28T10:00:20;94154.00;;;12.90
15575;BMP180;7888;46.748;8.102;2024-02-28T10:02:47;94150.00;;;12.90
15575;BMP180;7888;46.748;8.102;2024-02-28T10:05:17;94158.00;;;12.90
15575;BMP180;7888;46.748;8.102;2024-02-28T10:07:45;94159.00;;;12.90
15575;BMP180;7888;46.748;8.102;2024-02-28T10:10:12;94160.00;;;12.90
15575;BMP180;7888;46.748;8.102;2024-02-28T10:12:41;94102.00;;;12.90
15575;BMP180;7888;46.748;8.102;2024-02-28T10:15:10;94156.00;;;12.90
15575;BMP180;7888;46.748;8.102;2024-02-28T10:17:36;94157.00;;;12.80
15575;BMP180;7888;46.748;8.102;2024-02-28T10:20:02;94163.00;;;12.80
15575;BMP180;7888;46.748;8.102;2024-02-28T10:22:36;94141.00;;;12.80
15575;BMP180;7888;46.748;8.102;2024-02-28T10:25:03;94102.00;;;12.70
15575;BMP180;7888;46.748;8.102;2024-02-28T10:27:33;94114.00;;;12.60
15575;BMP180;7888;46.748;8.102;2024-02-28T10:30:00;94153.00;;;12.70
15575;BMP180;7888;46.748;8.102;2024-02-28T10:32:33;94102.00;;;12.70
15575;BMP180;7888;46.748;8.102;2024-02-28T10:35:01;94139.00;;;12.60
15575;BMP180;7888;46.748;8.102;2024-02-28T10:37:29;94128.00;;;12.70
15575;BMP180;7888;46.748;8.102;2024-02-28T10:39:58;94140.00;;;12.80
15575;BMP180;7888;46.748;8.102;2024-02-28T10:42:30;94132.00;;;12.80
15575;BMP180;7888;46.748;8.102;2024-02-28T10:44:57;94133.00;;;12.90
15575;BMP180;7888;46.748;8.102;2024-02-28T10:47:26;94138.00;;;12.90
15575;BMP180;7888;46.748;8.102;2024-02-28T10:49:53;94098.00;;;12.90
15575;BMP180;7888;46.748;8.102;2024-02-28T10:52:22;94108.00;;;12.90
15575;BMP180;7888;46.748;8.102;2024-02-28T10:54:54;94078.00;;;12.90
15575;BMP180;7888;46.748;8.102;2024-02-28T10:57:24;94115.00;;;13.00
15575;BMP180;7888;46.748;8.102;2024-02-28T10:59:51;94127.00;;;12.90
15575;BMP180;7888;46.748;8.102;2024-02-28T11:02:17;94141.00;;;13.10
15575;BMP180;7888;46.748;8.102;2024-02-28T11:04:43;94121.00;;;13.10
15575;BMP180;7888;46.748;8.102;2024-02-28T11:07:09;94122.00;;;13.00
15575;BMP180;7888;46.748;8.102;2024-02-28T11:09:34;94082.00;;;13.00
15575;BMP180;7888;46.748;8.102;2024-02-28T11:12:04;94108.00;;;13.00
15575;BMP180;7888;46.748;8.102;2024-02-28T11:14:30;94131.00;;;13.00
15575;BMP180;7888;46.748;8.102;2024-02-28T11:17:03;94124.00;;;12.90
15575;BMP180;7888;46.748;8.102;2024-02-28T11:19:31;94116.00;;;13.00
15575;BMP180;7888;46.748;8.102;2024-02-28T11:21:59;94116.00;;;13.00
15575;BMP180;7888;46.748;8.102;2024-02-28T11:24:33;94082.00;;;12.90
15575;BMP180;7888;46.748;8.102;2024-02-28T11:27:00;94121.00;;;13.00
15575;BMP180;7888;46.748;8.102;2024-02-28T11:29:28;94124.00;;;13.00
15575;BMP180;7888;46.748;8.102;2024-02-28T11:31:57;94122.00;;;13.00
15575;BMP180;7888;46.748;8.102;2024-02-28T11:34:23;94057.00;;;13.00
15575;BMP180;7888;46.748;8.102;2024-02-28T11:36:50;94126.00;;;13.10
15575;BMP180;7888;46.748;8.102;2024-02-28T11:39:17;94133.00;;;13.10
15575;BMP180;7888;46.748;8.102;2024-02-28T11:41:43;94091.00;;;13.10
15575;BMP180;7888;46.748;8.102;2024-02-28T11:44:13;94130.00;;;13.20
15575;BMP180;7888;46.748;8.102;2024-02-28T11:46:47;94119.00;;;13.20
15575;BMP180;7888;46.748;8.102;2024-02-28T11:49:13;94096.00;;;13.30
15575;BMP180;7888;46.748;8.102;2024-02-28T11:51:43;94147.00;;;13.30
15575;BMP180;7888;46.748;8.102;2024-02-28T11:54:09;94137.00;;;13.40
15575;BMP180;7888;46.748;8.102;2024-02-28T11:56:40;94135.00;;;13.40
15575;BMP180;7888;46.748;8.102;2024-02-28T11:59:06;94139.00;;;13.40
15575;BMP180;7888;46.748;8.102;2024-02-28T12:01:39;94131.00;;;13.50
15575;BMP180;7888;46.748;8.102;2024-02-28T12:04:06;94087.00;;;13.50
15575;BMP180;7888;46.748;8.102;2024-02-28T12:06:36;94142.00;;;13.40
15575;BMP180;7888;46.748;8.102;2024-02-28T12:09:12;94134.00;;;13.30
15575;BMP180;7888;46.748;8.102;2024-02-28T12:11:41;94121.00;;;13.20
15575;BMP180;7888;46.748;8.102;2024-02-28T12:14:07;94159.00;;;13.20
15575;BMP180;7888;46.748;8.102;2024-02-28T12:16:39;94154.00;;;13.20
15575;BMP180;7888;46.748;8.102;2024-02-28T12:19:12;94139.00;;;13.10
15575;BMP180;7888;46.748;8.102;2024-02-28T12:21:39;94137.00;;;13.10
15575;BMP180;7888;46.748;8.102;2024-02-28T12:24:08;94169.00;;;13.10
15575;BMP180;7888;46.748;8.102;2024-02-28T12:26:38;94117.00;;;13.20
15575;BMP180;7888;46.748;8.102;2024-02-28T12:29:03;94145.00;;;13.20
15575;BMP180;7888;46.748;8.102;2024-02-28T12:31:30;94182.00;;;13.20
15575;BMP180;7888;46.748;8.102;2024-02-28T12:33:55;94134.00;;;13.20
15575;BMP180;7888;46.748;8.102;2024-02-28T12:36:21;94131.00;;;13.20
15575;BMP180;7888;46.748;8.102;2024-02-28T12:38:47;94109.00;;;13.30
15575;BMP180;7888;46.748;8.102;2024-02-28T12:41:14;94165.00;;;13.30
15575;BMP180;7888;46.748;8.102;2024-02-28T12:43:41;94128.00;;;13.30
15575;BMP180;7888;46.748;8.102;2024-02-28T12:46:07;94172.00;;;13.30
15575;BMP180;7888;46.748;8.102;2024-02-28T12:48:42;94134.00;;;13.40
15575;BMP180;7888;46.748;8.102;2024-02-28T12:51:11;94135.00;;;13.40
15575;BMP180;7888;46.748;8.102;2024-02-28T12:53:39;94173.00;;;13.50
15575;BMP180;7888;46.748;8.102;2024-02-28T12:56:05;94140.00;;;13.50
15575;BMP180;7888;46.748;8.102;2024-02-28T12:58:31;94182.00;;;13.50
15575;BMP180;7888;46.748;8.102;2024-02-28T13:00:57;94148.00;;;13.40
15575;BMP180;7888;46.748;8.102;2024-02-28T13:03:23;94183.00;;;13.40
15575;BMP180;7888;46.748;8.102;2024-02-28T13:05:49;94194.00;;;13.40
15575;BMP180;7888;46.748;8.102;2024-02-28T13:08:15;94146.00;;;13.40
15575;BMP180;7888;46.748;8.102;2024-02-28T13:10:40;94148.00;;;13.40
15575;BMP180;7888;46.748;8.102;2024-02-28T13:13:07;94143.00;;;13.40
15575;BMP180;7888;46.748;8.102;2024-02-28T13:15:33;94119.00;;;13.40
15575;BMP180;7888;46.748;8.102;2024-02-28T13:18:00;94189.00;;;13.40
15575;BMP180;7888;46.748;8.102;2024-02-28T13:20:27;94147.00;;;13.40
15575;BMP180;7888;46.748;8.102;2024-02-28T13:22:53;94193.00;;;13.40
15575;BMP180;7888;46.748;8.102;2024-02-28T13:25:19;94182.00;;;13.40
15575;BMP180;7888;46.748;8.102;2024-02-28T13:27:46;94185.00;;;13.50
15575;BMP180;7888;46.748;8.102;2024-02-28T13:30:14;94143.00;;;13.40
15575;BMP180;7888;46.748;8.102;2024-02-28T13:32:40;94119.00;;;13.60
15575;BMP180;7888;46.748;8.102;2024-02-28T13:35:07;94132.00;;;13.60
15575;BMP180;7888;46.748;8.102;2024-02-28T13:37:33;94140.00;;;13.60
15575;BMP180;7888;46.748;8.102;2024-02-28T13:39:59;94140.00;;;13.60
15575;BMP180;7888;46.748;8.102;2024-02-28T13:42:25;94181.00;;;13.70
15575;BMP180;7888;46.748;8.102;2024-02-28T13:44:51;94193.00;;;13.60
15575;BMP180;7888;46.748;8.102;2024-02-28T13:47:17;94141.00;;;13.60
15575;BMP180;7888;46.748;8.102;2024-02-28T13:49:43;94200.00;;;13.60
15575;BMP180;7888;46.748;8.102;2024-02-28T13:52:09;94131.00;;;13.60
15575;BMP180;7888;46.748;8.102;2024-02-28T13:54:34;94192.00;;;13.60
15575;BMP180;7888;46.748;8.102;2024-02-28T13:57:01;94151.00;;;13.60
15575;BMP180;7888;46.748;8.102;2024-02-28T13:59:27;94168.00;;;13.60
15575;BMP180;7888;46.748;8.102;2024-02-28T14:01:53;94110.00;;;13.60
15575;BMP180;7888;46.748;8.102;2024-02-28T14:04:19;94143.00;;;13.60
15575;BMP180;7888;46.748;8.102;2024-02-28T14:06:45;94149.00;;;13.70
15575;BMP180;7888;46.748;8.102;2024-02-28T14:09:11;94163.00;;;13.70
15575;BMP180;7888;46.748;8.102;2024-02-28T14:11:37;94142.00;;;13.70
15575;BMP180;7888;46.748;8.102;2024-02-28T14:14:04;94194.00;;;13.70
15575;BMP180;7888;46.748;8.102;2024-02-28T14:16:30;94130.00;;;13.80
15575;BMP180;7888;46.748;8.102;2024-02-28T14:18:59;94110.00;;;13.80